sensor_id;sensor_type;location;lat;lon;timestamp;temperature;humidity
30534;DHT22;17318;52.390;9.754;2022-08-11T00:01:23;20.80;69.80
30534;DHT22;17318;52.390;9.754;2022-08-11T00:03:57;20.70;70.20
30534;DHT22;17318;52.390;9.754;2022-08-11T00:08:55;20.60;70.30
30534;DHT22;17318;52.390;9.754;2022-08-11T00:11:34;20.60;70.70
30534;DHT22;17318;52.390;9.754;2022-08-11T00:14:02;20.60;70.70
30534;DHT22;17318;52.390;9.754;2022-08-11T00:16:29;20.60;70.80
30534;DHT22;17318;52.390;9.754;2022-08-11T00:18:56;20.50;71.10
30534;DHT22;17318;52.390;9.754;2022-08-11T00:21:23;20.50;71.20
30534;DHT22;17318;52.390;9.754;2022-08-11T00:24:00;20.50;71.50
30534;DHT22;17318;52.390;9.754;2022-08-11T00:26:28;20.40;71.90
30534;DHT22;17318;52.390;9.754;2022-08-11T00:28:54;20.40;72.10
30534;DHT22;17318;52.390;9.754;2022-08-11T00:31:28;20.40;72.10
30534;DHT22;17318;52.390;9.754;2022-08-11T00:33:54;20.40;72.60
30534;DHT22;17318;52.390;9.754;2022-08-11T00:36:26;20.40;72.70
30534;DHT22;17318;52.390;9.754;2022-08-11T00:38:55;20.40;73.00
30534;DHT22;17318;52.390;9.754;2022-08-11T00:47:32;20.30;74.00
30534;DHT22;17318;52.390;9.754;2022-08-11T00:53:04;20.20;74.90
30534;DHT22;17318;52.390;9.754;2022-08-11T01:06:37;19.90;76.00
30534;DHT22;17318;52.390;9.754;2022-08-11T01:20:08;19.70;78.10
30534;DHT22;17318;52.390;9.754;2022-08-11T01:31:18;19.60;79.80
30534;DHT22;17318;52.390;9.754;2022-08-11T01:45:49;19.40;82.40
30534;DHT22;17318;52.390;9.754;2022-08-11T01:48:41;19.40;82.40
30534;DHT22;17318;52.390;9.754;2022-08-11T01:51:36;19.40;82.80
30534;DHT22;17318;52.390;9.754;2022-08-11T01:54:20;19.40;82.90
30534;DHT22;17318;52.390;9.754;2022-08-11T01:59:42;19.30;83.60
30534;DHT22;17318;52.390;9.754;2022-08-11T02:02:22;19.20;83.90
30534;DHT22;17318;52.390;9.754;2022-08-11T02:07:58;19.20;85.10
30534;DHT22;17318;52.390;9.754;2022-08-11T02:14:02;19.10;85.50
30534;DHT22;17318;52.390;9.754;2022-08-11T02:16:46;19.10;85.40
30534;DHT22;17318;52.390;9.754;2022-08-11T02:27:26;19.00;86.70
30534;DHT22;17318;52.390;9.754;2022-08-11T02:30:02;19.00;86.90
30534;DHT22;17318;52.390;9.754;2022-08-11T02:32:49;19.00;87.00
30534;DHT22;17318;52.390;9.754;2022-08-11T02:38:36;19.00;87.20
30534;DHT22;17318;52.390;9.754;2022-08-11T02:41:36;19.00;87.40
30534;DHT22;17318;52.390;9.754;2022-08-11T02:44:45;19.00;88.10
30534;DHT22;17318;52.390;9.754;2022-08-11T02:50:35;18.90;87.70
30534;DHT22;17318;52.390;9.754;2022-08-11T02:53:16;18.90;87.80
30534;DHT22;17318;52.390;9.754;2022-08-11T02:55:57;18.80;87.70
30534;DHT22;17318;52.390;9.754;2022-08-11T02:58:35;18.80;87.80
30534;DHT22;17318;52.390;9.754;2022-08-11T03:01:22;18.80;88.00
30534;DHT22;17318;52.390;9.754;2022-08-11T03:03:59;18.80;88.20
30534;DHT22;17318;52.390;9.754;2022-08-11T03:06:48;18.80;88.10
30534;DHT22;17318;52.390;9.754;2022-08-11T03:09:48;18.70;88.50
30534;DHT22;17318;52.390;9.754;2022-08-11T03:12:24;18.70;88.80
30534;DHT22;17318;52.390;9.754;2022-08-11T03:15:21;18.60;88.60
30534;DHT22;17318;52.390;9.754;2022-08-11T03:21:20;18.70;89.20
30534;DHT22;17318;52.390;9.754;2022-08-11T03:29:15;18.50;89.10
30534;DHT22;17318;52.390;9.754;2022-08-11T03:34:35;18.50;88.50
30534;DHT22;17318;52.390;9.754;2022-08-11T03:40:25;18.40;88.90
30534;DHT22;17318;52.390;9.754;2022-08-11T03:51:52;18.40;88.90
30534;DHT22;17318;52.390;9.754;2022-08-11T03:54:28;18.40;89.00
30534;DHT22;17318;52.390;9.754;2022-08-11T04:08:36;18.30;89.30
30534;DHT22;17318;52.390;9.754;2022-08-11T04:26:20;18.00;90.30
30534;DHT22;17318;52.390;9.754;2022-08-11T04:31:58;18.10;90.20
30534;DHT22;17318;52.390;9.754;2022-08-11T04:34:47;18.00;90.50
30534;DHT22;17318;52.390;9.754;2022-08-11T04:54:46;18.10;90.80
30534;DHT22;17318;52.390;9.754;2022-08-11T04:57:50;18.10;91.00
30534;DHT22;17318;52.390;9.754;2022-08-11T05:01:23;18.10;91.10
30534;DHT22;17318;52.390;9.754;2022-08-11T05:04:20;18.10;91.30
30534;DHT22;17318;52.390;9.754;2022-08-11T05:15:17;18.20;91.30
30534;DHT22;17318;52.390;9.754;2022-08-11T05:18:14;18.10;91.70
30534;DHT22;17318;52.390;9.754;2022-08-11T05:21:07;18.10;91.80
30534;DHT22;17318;52.390;9.754;2022-08-11T05:24:05;18.20;91.70
30534;DHT22;17318;52.390;9.754;2022-08-11T05:26:51;18.20;91.80
30534;DHT22;17318;52.390;9.754;2022-08-11T05:29:45;18.20;91.80
30534;DHT22;17318;52.390;9.754;2022-08-11T05:32:35;18.30;91.80
30534;DHT22;17318;52.390;9.754;2022-08-11T05:35:37;18.40;91.90
30534;DHT22;17318;52.390;9.754;2022-08-11T05:38:14;18.40;91.80
30534;DHT22;17318;52.390;9.754;2022-08-11T05:41:00;18.50;91.80
30534;DHT22;17318;52.390;9.754;2022-08-11T05:43:46;18.50;91.40
30534;DHT22;17318;52.390;9.754;2022-08-11T05:46:41;18.60;91.50
30534;DHT22;17318;52.390;9.754;2022-08-11T05:49:29;18.60;91.50
30534;DHT22;17318;52.390;9.754;2022-08-11T05:52:20;18.70;91.60
30534;DHT22;17318;52.390;9.754;2022-08-11T05:55:07;18.70;91.20
30534;DHT22;17318;52.390;9.754;2022-08-11T05:58:03;18.80;91.40
30534;DHT22;17318;52.390;9.754;2022-08-11T06:00:30;18.80;91.30
30534;DHT22;17318;52.390;9.754;2022-08-11T06:03:00;18.90;90.80
30534;DHT22;17318;52.390;9.754;2022-08-11T06:05:36;18.90;91.10
30534;DHT22;17318;52.390;9.754;2022-08-11T06:08:04;19.00;91.20
30534;DHT22;17318;52.390;9.754;2022-08-11T06:10:42;19.00;91.30
30534;DHT22;17318;52.390;9.754;2022-08-11T06:13:09;19.00;91.30
30534;DHT22;17318;52.390;9.754;2022-08-11T06:15:47;19.20;91.30
30534;DHT22;17318;52.390;9.754;2022-08-11T06:18:13;19.20;91.60
30534;DHT22;17318;52.390;9.754;2022-08-11T06:23:13;19.40;91.40
30534;DHT22;17318;52.390;9.754;2022-08-11T06:25:42;19.40;91.20
30534;DHT22;17318;52.390;9.754;2022-08-11T06:28:09;19.50;91.20
30534;DHT22;17318;52.390;9.754;2022-08-11T06:30:41;19.60;91.20
30534;DHT22;17318;52.390;9.754;2022-08-11T06:44:27;19.90;90.60
30534;DHT22;17318;52.390;9.754;2022-08-11T06:46:54;20.00;90.60
30534;DHT22;17318;52.390;9.754;2022-08-11T06:49:34;20.10;90.50
30534;DHT22;17318;52.390;9.754;2022-08-11T06:52:31;20.10;90.70
30534;DHT22;17318;52.390;9.754;2022-08-11T06:58:13;20.20;90.40
30534;DHT22;17318;52.390;9.754;2022-08-11T07:01:12;20.40;90.30
30534;DHT22;17318;52.390;9.754;2022-08-11T07:03:54;20.40;90.40
30534;DHT22;17318;52.390;9.754;2022-08-11T07:06:39;20.50;90.40
30534;DHT22;17318;52.390;9.754;2022-08-11T07:09:40;20.70;90.20
30534;DHT22;17318;52.390;9.754;2022-08-11T07:12:42;20.70;90.10
30534;DHT22;17318;52.390;9.754;2022-08-11T07:15:33;20.90;90.00
30534;DHT22;17318;52.390;9.754;2022-08-11T07:18:24;21.00;89.70
30534;DHT22;17318;52.390;9.754;2022-08-11T07:21:15;21.10;89.30
30534;DHT22;17318;52.390;9.754;2022-08-11T07:24:05;21.30;88.90
30534;DHT22;17318;52.390;9.754;2022-08-11T07:26:53;21.40;88.90
30534;DHT22;17318;52.390;9.754;2022-08-11T07:29:38;21.60;88.20
30534;DHT22;17318;52.390;9.754;2022-08-11T07:32:24;21.70;88.40
30534;DHT22;17318;52.390;9.754;2022-08-11T07:35:08;21.70;87.30
30534;DHT22;17318;52.390;9.754;2022-08-11T07:37:46;21.80;87.30
30534;DHT22;17318;52.390;9.754;2022-08-11T07:40:12;22.00;86.90
30534;DHT22;17318;52.390;9.754;2022-08-11T07:42:39;22.10;86.20
30534;DHT22;17318;52.390;9.754;2022-08-11T07:45:11;22.20;86.60
30534;DHT22;17318;52.390;9.754;2022-08-11T07:47:56;22.30;86.60
30534;DHT22;17318;52.390;9.754;2022-08-11T07:50:43;22.40;86.10
30534;DHT22;17318;52.390;9.754;2022-08-11T07:53:30;22.50;85.20
30534;DHT22;17318;52.390;9.754;2022-08-11T07:55:58;22.60;84.10
30534;DHT22;17318;52.390;9.754;2022-08-11T07:58:25;22.80;84.20
30534;DHT22;17318;52.390;9.754;2022-08-11T08:01:11;22.90;84.90
30534;DHT22;17318;52.390;9.754;2022-08-11T08:03:58;23.00;83.70
30534;DHT22;17318;52.390;9.754;2022-08-11T08:06:43;23.20;82.70
30534;DHT22;17318;52.390;9.754;2022-08-11T08:09:32;23.30;83.30
30534;DHT22;17318;52.390;9.754;2022-08-11T08:12:20;23.40;82.80
30534;DHT22;17318;52.390;9.754;2022-08-11T08:15:08;23.60;81.00
30534;DHT22;17318;52.390;9.754;2022-08-11T08:17:56;23.80;81.60
30534;DHT22;17318;52.390;9.754;2022-08-11T08:20:26;24.10;81.30
30534;DHT22;17318;52.390;9.754;2022-08-11T08:22:55;24.50;78.90
30534;DHT22;17318;52.390;9.754;2022-08-11T08:25:26;24.80;79.10
30534;DHT22;17318;52.390;9.754;2022-08-11T08:27:56;25.20;80.90
30534;DHT22;17318;52.390;9.754;2022-08-11T08:30:28;26.30;79.20
30534;DHT22;17318;52.390;9.754;2022-08-11T08:33:23;27.70;79.20
30534;DHT22;17318;52.390;9.754;2022-08-11T08:36:03;29.30;74.10
30534;DHT22;17318;52.390;9.754;2022-08-11T08:38:49;30.50;67.80
30534;DHT22;17318;52.390;9.754;2022-08-11T08:41:27;31.20;61.50
30534;DHT22;17318;52.390;9.754;2022-08-11T08:43:58;32.20;61.60
30534;DHT22;17318;52.390;9.754;2022-08-11T08:46:29;32.70;57.80
30534;DHT22;17318;52.390;9.754;2022-08-11T08:49:00;33.10;56.50
30534;DHT22;17318;52.390;9.754;2022-08-11T08:51:26;33.70;55.70
30534;DHT22;17318;52.390;9.754;2022-08-11T08:54:14;34.30;52.60
30534;DHT22;17318;52.390;9.754;2022-08-11T08:56:43;35.10;51.30
30534;DHT22;17318;52.390;9.754;2022-08-11T08:59:11;35.70;51.10
30534;DHT22;17318;52.390;9.754;2022-08-11T09:02:00;36.10;50.30
30534;DHT22;17318;52.390;9.754;2022-08-11T09:04:31;36.30;47.90
30534;DHT22;17318;52.390;9.754;2022-08-11T09:07:07;36.40;46.20
30534;DHT22;17318;52.390;9.754;2022-08-11T09:09:33;36.90;47.10
30534;DHT22;17318;52.390;9.754;2022-08-11T09:12:01;36.70;45.00
30534;DHT22;17318;52.390;9.754;2022-08-11T09:14:34;37.10;44.80
30534;DHT22;17318;52.390;9.754;2022-08-11T09:17:21;37.50;44.60
30534;DHT22;17318;52.390;9.754;2022-08-11T09:19:50;38.00;43.40
30534;DHT22;17318;52.390;9.754;2022-08-11T09:22:30;38.50;40.90
30534;DHT22;17318;52.390;9.754;2022-08-11T09:25:15;38.90;39.70
30534;DHT22;17318;52.390;9.754;2022-08-11T09:28:00;38.90;39.30
30534;DHT22;17318;52.390;9.754;2022-08-11T09:30:27;39.00;39.20
30534;DHT22;17318;52.390;9.754;2022-08-11T09:32:55;39.60;38.60
30534;DHT22;17318;52.390;9.754;2022-08-11T09:35:33;40.10;37.10
30534;DHT22;17318;52.390;9.754;2022-08-11T09:38:01;40.00;35.40
30534;DHT22;17318;52.390;9.754;2022-08-11T09:40:48;39.40;32.50
30534;DHT22;17318;52.390;9.754;2022-08-11T09:43:17;39.60;33.00
30534;DHT22;17318;52.390;9.754;2022-08-11T09:46:09;39.60;34.20
30534;DHT22;17318;52.390;9.754;2022-08-11T09:48:37;39.20;33.90
30534;DHT22;17318;52.390;9.754;2022-08-11T09:51:08;39.50;33.80
30534;DHT22;17318;52.390;9.754;2022-08-11T09:53:38;39.60;33.20
30534;DHT22;17318;52.390;9.754;2022-08-11T09:56:14;39.60;34.40
30534;DHT22;17318;52.390;9.754;2022-08-11T09:59:00;39.90;33.80
30534;DHT22;17318;52.390;9.754;2022-08-11T10:01:31;39.60;33.30
30534;DHT22;17318;52.390;9.754;2022-08-11T10:04:10;40.10;32.60
30534;DHT22;17318;52.390;9.754;2022-08-11T10:06:41;39.90;32.60
30534;DHT22;17318;52.390;9.754;2022-08-11T10:09:45;40.10;32.10
30534;DHT22;17318;52.390;9.754;2022-08-11T10:12:32;39.20;33.60
30534;DHT22;17318;52.390;9.754;2022-08-11T10:15:03;38.40;32.80
30534;DHT22;17318;52.390;9.754;2022-08-11T10:18:04;37.70;34.30
30534;DHT22;17318;52.390;9.754;2022-08-11T10:20:51;38.30;32.90
30534;DHT22;17318;52.390;9.754;2022-08-11T10:23:19;37.70;35.20
30534;DHT22;17318;52.390;9.754;2022-08-11T10:26:07;37.80;33.60
30534;DHT22;17318;52.390;9.754;2022-08-11T10:28:52;38.20;32.90
30534;DHT22;17318;52.390;9.754;2022-08-11T10:31:20;38.30;31.90
30534;DHT22;17318;52.390;9.754;2022-08-11T10:34:07;36.50;32.80
30534;DHT22;17318;52.390;9.754;2022-08-11T10:36:37;36.10;33.80
30534;DHT22;17318;52.390;9.754;2022-08-11T10:39:18;35.80;34.80
30534;DHT22;17318;52.390;9.754;2022-08-11T10:41:46;35.10;34.70
30534;DHT22;17318;52.390;9.754;2022-08-11T10:44:39;34.60;35.60
30534;DHT22;17318;52.390;9.754;2022-08-11T10:47:10;33.90;37.10
30534;DHT22;17318;52.390;9.754;2022-08-11T10:49:56;33.90;38.80
30534;DHT22;17318;52.390;9.754;2022-08-11T10:52:41;34.10;37.70
30534;DHT22;17318;52.390;9.754;2022-08-11T10:55:27;34.00;37.30
30534;DHT22;17318;52.390;9.754;2022-08-11T10:58:12;33.70;37.70
30534;DHT22;17318;52.390;9.754;2022-08-11T11:00:58;33.30;37.90
30534;DHT22;17318;52.390;9.754;2022-08-11T11:03:28;33.60;37.10
30534;DHT22;17318;52.390;9.754;2022-08-11T11:06:00;33.40;37.50
30534;DHT22;17318;52.390;9.754;2022-08-11T11:08:29;33.50;37.60
30534;DHT22;17318;52.390;9.754;2022-08-11T11:11:17;33.50;37.20
30534;DHT22;17318;52.390;9.754;2022-08-11T11:13:48;33.20;37.70
30534;DHT22;17318;52.390;9.754;2022-08-11T11:16:35;32.90;37.70
30534;DHT22;17318;52.390;9.754;2022-08-11T11:19:14;33.10;38.10
30534;DHT22;17318;52.390;9.754;2022-08-11T11:21:47;32.90;38.10
30534;DHT22;17318;52.390;9.754;2022-08-11T11:27:28;33.00;38.40
30534;DHT22;17318;52.390;9.754;2022-08-11T11:30:08;32.90;38.30
30534;DHT22;17318;52.390;9.754;2022-08-11T11:37:35;32.30;39.40
30534;DHT22;17318;52.390;9.754;2022-08-11T11:40:08;32.30;39.00
30534;DHT22;17318;52.390;9.754;2022-08-11T11:42:42;32.30;38.70
30534;DHT22;17318;52.390;9.754;2022-08-11T11:45:10;32.40;38.40
30534;DHT22;17318;52.390;9.754;2022-08-11T11:47:40;32.40;38.80
30534;DHT22;17318;52.390;9.754;2022-08-11T11:50:07;32.50;38.10
30534;DHT22;17318;52.390;9.754;2022-08-11T11:52:34;32.30;38.10
30534;DHT22;17318;52.390;9.754;2022-08-11T11:55:03;32.20;37.90
30534;DHT22;17318;52.390;9.754;2022-08-11T11:57:30;32.20;39.90
30534;DHT22;17318;52.390;9.754;2022-08-11T12:00:15;32.10;38.50
30534;DHT22;17318;52.390;9.754;2022-08-11T12:03:06;32.00;38.40
30534;DHT22;17318;52.390;9.754;2022-08-11T12:05:36;31.90;40.20
30534;DHT22;17318;52.390;9.754;2022-08-11T12:08:03;31.70;37.70
30534;DHT22;17318;52.390;9.754;2022-08-11T12:10:56;31.80;37.70
30534;DHT22;17318;52.390;9.754;2022-08-11T12:14:05;31.60;37.50
30534;DHT22;17318;52.390;9.754;2022-08-11T12:16:34;31.40;37.60
30534;DHT22;17318;52.390;9.754;2022-08-11T12:19:02;31.60;37.00
30534;DHT22;17318;52.390;9.754;2022-08-11T12:21:28;31.40;38.10
30534;DHT22;17318;52.390;9.754;2022-08-11T12:23:56;31.40;37.50
30534;DHT22;17318;52.390;9.754;2022-08-11T12:26:41;31.50;37.30
30534;DHT22;17318;52.390;9.754;2022-08-11T12:29:20;31.50;37.00
30534;DHT22;17318;52.390;9.754;2022-08-11T12:31:53;31.50;37.80
30534;DHT22;17318;52.390;9.754;2022-08-11T12:34:20;31.40;38.10
30534;DHT22;17318;52.390;9.754;2022-08-11T12:36:58;31.40;38.10
30534;DHT22;17318;52.390;9.754;2022-08-11T12:39:27;31.40;38.90
30534;DHT22;17318;52.390;9.754;2022-08-11T12:42:16;31.40;37.50
30534;DHT22;17318;52.390;9.754;2022-08-11T12:45:07;31.40;37.60
30534;DHT22;17318;52.390;9.754;2022-08-11T12:50:42;31.30;37.30
30534;DHT22;17318;52.390;9.754;2022-08-11T12:53:30;31.30;39.40
30534;DHT22;17318;52.390;9.754;2022-08-11T12:56:03;31.30;38.70
30534;DHT22;17318;52.390;9.754;2022-08-11T12:58:51;31.30;38.60
30534;DHT22;17318;52.390;9.754;2022-08-11T13:01:18;31.40;38.80
30534;DHT22;17318;52.390;9.754;2022-08-11T13:04:04;31.20;39.00
30534;DHT22;17318;52.390;9.754;2022-08-11T13:06:50;31.30;38.40
30534;DHT22;17318;52.390;9.754;2022-08-11T13:09:17;31.30;38.50
30534;DHT22;17318;52.390;9.754;2022-08-11T13:11:45;31.30;38.90
30534;DHT22;17318;52.390;9.754;2022-08-11T13:14:30;31.30;38.80
30534;DHT22;17318;52.390;9.754;2022-08-11T13:16:58;31.30;37.10
30534;DHT22;17318;52.390;9.754;2022-08-11T13:19:44;31.10;37.90
30534;DHT22;17318;52.390;9.754;2022-08-11T13:22:11;31.00;38.00
30534;DHT22;17318;52.390;9.754;2022-08-11T13:24:38;31.00;38.80
30534;DHT22;17318;52.390;9.754;2022-08-11T13:27:05;31.00;38.50
30534;DHT22;17318;52.390;9.754;2022-08-11T13:29:31;31.10;38.00
30534;DHT22;17318;52.390;9.754;2022-08-11T13:32:01;31.00;37.70
30534;DHT22;17318;52.390;9.754;2022-08-11T13:34:29;31.00;37.30
30534;DHT22;17318;52.390;9.754;2022-08-11T13:37:00;30.90;37.60
30534;DHT22;17318;52.390;9.754;2022-08-11T13:39:29;30.90;37.90
30534;DHT22;17318;52.390;9.754;2022-08-11T13:41:57;30.80;37.80
30534;DHT22;17318;52.390;9.754;2022-08-11T13:44:25;30.70;38.00
30534;DHT22;17318;52.390;9.754;2022-08-11T13:47:01;30.70;38.00
30534;DHT22;17318;52.390;9.754;2022-08-11T13:49:30;30.60;38.10
30534;DHT22;17318;52.390;9.754;2022-08-11T13:51:57;30.40;38.60
30534;DHT22;17318;52.390;9.754;2022-08-11T13:54:27;30.40;38.60
30534;DHT22;17318;52.390;9.754;2022-08-11T13:57:00;30.40;38.20
30534;DHT22;17318;52.390;9.754;2022-08-11T13:59:27;30.40;38.90
30534;DHT22;17318;52.390;9.754;2022-08-11T14:01:56;30.40;39.20
30534;DHT22;17318;52.390;9.754;2022-08-11T14:04:31;30.40;40.30
30534;DHT22;17318;52.390;9.754;2022-08-11T14:06:59;30.40;38.60
30534;DHT22;17318;52.390;9.754;2022-08-11T14:09:31;30.30;38.80
30534;DHT22;17318;52.390;9.754;2022-08-11T14:12:00;30.30;40.00
30534;DHT22;17318;52.390;9.754;2022-08-11T14:14:50;30.30;39.80
30534;DHT22;17318;52.390;9.754;2022-08-11T14:17:18;30.20;38.80
30534;DHT22;17318;52.390;9.754;2022-08-11T14:19:46;30.10;41.80
30534;DHT22;17318;52.390;9.754;2022-08-11T14:22:16;30.10;41.20
30534;DHT22;17318;52.390;9.754;2022-08-11T14:24:44;30.10;41.00
30534;DHT22;17318;52.390;9.754;2022-08-11T14:27:15;30.10;42.00
30534;DHT22;17318;52.390;9.754;2022-08-11T14:29:42;30.10;41.50
30534;DHT22;17318;52.390;9.754;2022-08-11T14:32:12;30.10;42.10
30534;DHT22;17318;52.390;9.754;2022-08-11T14:34:41;30.10;40.40
30534;DHT22;17318;52.390;9.754;2022-08-11T14:37:17;30.10;40.40
30534;DHT22;17318;52.390;9.754;2022-08-11T14:39:52;30.10;41.80
30534;DHT22;17318;52.390;9.754;2022-08-11T14:42:20;30.10;40.80
30534;DHT22;17318;52.390;9.754;2022-08-11T14:45:06;30.10;41.00
30534;DHT22;17318;52.390;9.754;2022-08-11T14:47:58;30.10;42.20
30534;DHT22;17318;52.390;9.754;2022-08-11T14:50:30;30.10;40.50
30534;DHT22;17318;52.390;9.754;2022-08-11T14:53:05;30.00;44.70
30534;DHT22;17318;52.390;9.754;2022-08-11T14:55:41;30.00;44.20
30534;DHT22;17318;52.390;9.754;2022-08-11T14:58:28;29.80;45.10
30534;DHT22;17318;52.390;9.754;2022-08-11T15:00:57;29.80;41.80
30534;DHT22;17318;52.390;9.754;2022-08-11T15:03:24;29.70;44.20
30534;DHT22;17318;52.390;9.754;2022-08-11T15:05:51;29.60;44.50
30534;DHT22;17318;52.390;9.754;2022-08-11T15:08:19;29.50;43.80
30534;DHT22;17318;52.390;9.754;2022-08-11T15:10:46;29.40;43.40
30534;DHT22;17318;52.390;9.754;2022-08-11T15:13:16;29.40;44.00
30534;DHT22;17318;52.390;9.754;2022-08-11T15:15:43;29.30;44.40
30534;DHT22;17318;52.390;9.754;2022-08-11T15:18:28;29.30;45.00
30534;DHT22;17318;52.390;9.754;2022-08-11T15:20:55;29.20;43.90
30534;DHT22;17318;52.390;9.754;2022-08-11T15:23:40;29.20;43.10
30534;DHT22;17318;52.390;9.754;2022-08-11T15:26:31;29.20;42.60
30534;DHT22;17318;52.390;9.754;2022-08-11T15:29:19;29.20;43.20
30534;DHT22;17318;52.390;9.754;2022-08-11T15:32:06;29.10;42.70
30534;DHT22;17318;52.390;9.754;2022-08-11T15:34:50;29.10;41.80
30534;DHT22;17318;52.390;9.754;2022-08-11T15:37:36;29.10;44.90
30534;DHT22;17318;52.390;9.754;2022-08-11T15:43:14;29.00;42.30
30534;DHT22;17318;52.390;9.754;2022-08-11T15:46:07;28.90;45.20
30534;DHT22;17318;52.390;9.754;2022-08-11T15:48:45;28.80;44.90
30534;DHT22;17318;52.390;9.754;2022-08-11T15:51:19;28.70;44.00
30534;DHT22;17318;52.390;9.754;2022-08-11T15:53:55;28.80;43.60
30534;DHT22;17318;52.390;9.754;2022-08-11T15:56:24;28.70;46.20
30534;DHT22;17318;52.390;9.754;2022-08-11T15:58:53;28.70;45.90
30534;DHT22;17318;52.390;9.754;2022-08-11T16:01:42;28.70;46.50
30534;DHT22;17318;52.390;9.754;2022-08-11T16:04:28;28.50;46.00
30534;DHT22;17318;52.390;9.754;2022-08-11T16:07:08;28.60;45.40
30534;DHT22;17318;52.390;9.754;2022-08-11T16:09:39;28.60;43.20
30534;DHT22;17318;52.390;9.754;2022-08-11T16:12:08;28.70;44.90
30534;DHT22;17318;52.390;9.754;2022-08-11T16:14:39;28.60;46.20
30534;DHT22;17318;52.390;9.754;2022-08-11T16:17:26;28.60;44.60
30534;DHT22;17318;52.390;9.754;2022-08-11T16:19:56;28.40;46.10
30534;DHT22;17318;52.390;9.754;2022-08-11T16:22:26;28.50;42.70
30534;DHT22;17318;52.390;9.754;2022-08-11T16:25:00;28.50;42.60
30534;DHT22;17318;52.390;9.754;2022-08-11T16:27:27;28.60;43.70
30534;DHT22;17318;52.390;9.754;2022-08-11T16:29:55;28.60;40.80
30534;DHT22;17318;52.390;9.754;2022-08-11T16:32:22;28.70;40.00
30534;DHT22;17318;52.390;9.754;2022-08-11T16:35:01;28.80;41.70
30534;DHT22;17318;52.390;9.754;2022-08-11T16:37:46;28.80;40.80
30534;DHT22;17318;52.390;9.754;2022-08-11T16:40:32;28.80;40.40
30534;DHT22;17318;52.390;9.754;2022-08-11T16:42:59;28.90;40.30
30534;DHT22;17318;52.390;9.754;2022-08-11T16:45:44;28.90;40.80
30534;DHT22;17318;52.390;9.754;2022-08-11T16:48:34;28.90;41.10
30534;DHT22;17318;52.390;9.754;2022-08-11T16:51:01;28.90;41.10
30534;DHT22;17318;52.390;9.754;2022-08-11T16:53:30;28.90;40.70
30534;DHT22;17318;52.390;9.754;2022-08-11T16:55:58;28.90;40.90
30534;DHT22;17318;52.390;9.754;2022-08-11T16:58:30;28.90;40.70
30534;DHT22;17318;52.390;9.754;2022-08-11T17:01:15;28.90;40.80
30534;DHT22;17318;52.390;9.754;2022-08-11T17:03:52;28.90;40.60
30534;DHT22;17318;52.390;9.754;2022-08-11T17:06:43;28.90;40.80
30534;DHT22;17318;52.390;9.754;2022-08-11T17:09:32;29.00;41.00
30534;DHT22;17318;52.390;9.754;2022-08-11T17:12:20;29.00;41.40
30534;DHT22;17318;52.390;9.754;2022-08-11T17:15:09;29.00;41.50
30534;DHT22;17318;52.390;9.754;2022-08-11T17:17:57;28.90;41.50
30534;DHT22;17318;52.390;9.754;2022-08-11T17:20:25;28.90;41.40
30534;DHT22;17318;52.390;9.754;2022-08-11T17:22:52;28.90;41.50
30534;DHT22;17318;52.390;9.754;2022-08-11T17:25:37;28.90;41.70
30534;DHT22;17318;52.390;9.754;2022-08-11T17:28:05;29.00;41.80
30534;DHT22;17318;52.390;9.754;2022-08-11T17:30:31;28.90;41.90
30534;DHT22;17318;52.390;9.754;2022-08-11T17:33:16;28.90;42.00
30534;DHT22;17318;52.390;9.754;2022-08-11T17:36:01;28.90;42.10
30534;DHT22;17318;52.390;9.754;2022-08-11T17:38:27;28.90;42.20
30534;DHT22;17318;52.390;9.754;2022-08-11T17:40:58;28.80;41.90
30534;DHT22;17318;52.390;9.754;2022-08-11T17:43:44;28.80;41.70
30534;DHT22;17318;52.390;9.754;2022-08-11T17:46:30;28.80;41.80
30534;DHT22;17318;52.390;9.754;2022-08-11T17:49:16;28.80;42.00
30534;DHT22;17318;52.390;9.754;2022-08-11T17:51:47;28.80;41.90
30534;DHT22;17318;52.390;9.754;2022-08-11T17:54:34;28.80;41.80
30534;DHT22;17318;52.390;9.754;2022-08-11T17:57:19;28.80;41.70
30534;DHT22;17318;52.390;9.754;2022-08-11T18:00:05;28.70;42.20
30534;DHT22;17318;52.390;9.754;2022-08-11T18:02:35;28.70;42.90
30534;DHT22;17318;52.390;9.754;2022-08-11T18:05:23;28.60;42.30
30534;DHT22;17318;52.390;9.754;2022-08-11T18:07:52;28.60;42.70
30534;DHT22;17318;52.390;9.754;2022-08-11T18:10:39;28.50;42.70
30534;DHT22;17318;52.390;9.754;2022-08-11T18:13:26;28.50;43.10
30534;DHT22;17318;52.390;9.754;2022-08-11T18:16:11;28.40;43.10
30534;DHT22;17318;52.390;9.754;2022-08-11T18:18:56;28.40;43.80
30534;DHT22;17318;52.390;9.754;2022-08-11T18:21:46;28.30;43.40
30534;DHT22;17318;52.390;9.754;2022-08-11T18:24:46;28.30;43.50
30534;DHT22;17318;52.390;9.754;2022-08-11T18:27:32;28.30;43.50
30534;DHT22;17318;52.390;9.754;2022-08-11T18:30:17;28.20;44.20
30534;DHT22;17318;52.390;9.754;2022-08-11T18:33:02;28.10;44.50
30534;DHT22;17318;52.390;9.754;2022-08-11T18:35:51;28.10;44.90
30534;DHT22;17318;52.390;9.754;2022-08-11T18:38:37;28.00;45.00
30534;DHT22;17318;52.390;9.754;2022-08-11T18:41:22;28.00;45.60
30534;DHT22;17318;52.390;9.754;2022-08-11T18:44:09;27.90;45.60
30534;DHT22;17318;52.390;9.754;2022-08-11T18:46:58;27.90;46.10
30534;DHT22;17318;52.390;9.754;2022-08-11T18:49:46;27.90;46.20
30534;DHT22;17318;52.390;9.754;2022-08-11T18:52:32;27.80;46.70
30534;DHT22;17318;52.390;9.754;2022-08-11T18:55:18;27.70;46.60
30534;DHT22;17318;52.390;9.754;2022-08-11T18:58:06;27.60;47.20
30534;DHT22;17318;52.390;9.754;2022-08-11T19:00:55;27.50;47.50
30534;DHT22;17318;52.390;9.754;2022-08-11T19:03:44;27.40;47.70
30534;DHT22;17318;52.390;9.754;2022-08-11T19:06:28;27.30;47.60
30534;DHT22;17318;52.390;9.754;2022-08-11T19:09:16;27.30;47.90
30534;DHT22;17318;52.390;9.754;2022-08-11T19:12:02;27.20;48.10
30534;DHT22;17318;52.390;9.754;2022-08-11T19:14:49;27.10;48.10
30534;DHT22;17318;52.390;9.754;2022-08-11T19:17:35;27.10;48.20
30534;DHT22;17318;52.390;9.754;2022-08-11T19:20:24;27.00;48.30
30534;DHT22;17318;52.390;9.754;2022-08-11T19:23:10;26.90;48.20
30534;DHT22;17318;52.390;9.754;2022-08-11T19:25:56;26.80;48.40
30534;DHT22;17318;52.390;9.754;2022-08-11T19:28:43;26.70;48.70
30534;DHT22;17318;52.390;9.754;2022-08-11T19:31:29;26.60;48.90
30534;DHT22;17318;52.390;9.754;2022-08-11T19:34:19;26.60;49.00
30534;DHT22;17318;52.390;9.754;2022-08-11T19:37:05;26.50;49.10
30534;DHT22;17318;52.390;9.754;2022-08-11T19:39:57;26.40;49.10
30534;DHT22;17318;52.390;9.754;2022-08-11T19:42:42;26.30;49.30
30534;DHT22;17318;52.390;9.754;2022-08-11T19:45:29;26.30;49.50
30534;DHT22;17318;52.390;9.754;2022-08-11T19:48:13;26.20;49.80
30534;DHT22;17318;52.390;9.754;2022-08-11T19:50:58;26.10;49.70